createdAt,value
2019-04-10T00:04:07.043Z,10.21
2019-04-10T00:09:11.195Z,10.31
2019-04-10T00:14:16.390Z,10.27
2019-04-10T00:19:20.555Z,10.21
2019-04-10T00:24:24.535Z,9.77
2019-04-10T00:29:28.474Z,9.76
2019-04-10T00:34:33.604Z,9.66
2019-04-10T00:39:38.939Z,9.58
2019-04-10T00:44:43.847Z,9.57
2019-04-10T00:49:48.273Z,9.50
2019-04-10T00:54:52.342Z,9.20
2019-04-10T00:59:56.825Z,8.76
2019-04-10T01:05:01.135Z,8.57
2019-04-10T01:10:06.282Z,8.57
2019-04-10T01:15:10.295Z,8.42
2019-04-10T01:20:15.593Z,8.31
2019-04-10T01:25:19.767Z,8.28
2019-04-10T01:30:24.366Z,8.17
2019-04-10T01:35:28.413Z,8.21
2019-04-10T01:40:32.602Z,8.21
2019-04-10T01:45:37.650Z,8.18
2019-04-10T01:50:42.331Z,8.10
2019-04-10T01:55:47.075Z,8.06
2019-04-10T02:00:52.083Z,8.10
2019-04-10T02:05:56.753Z,8.17
2019-04-10T02:11:00.965Z,8.10
2019-04-10T02:16:06.132Z,8.06
2019-04-10T02:21:10.264Z,7.98
2019-04-10T02:26:14.294Z,7.95
2019-04-10T02:31:19.160Z,7.86
2019-04-10T02:36:23.696Z,7.85
2019-04-10T02:41:27.987Z,7.80
2019-04-10T02:46:33.155Z,7.71
2019-04-10T02:51:38.720Z,7.62
2019-04-10T02:56:43.473Z,7.63
2019-04-10T03:01:49.742Z,7.67
2019-04-10T03:06:55.446Z,7.63
2019-04-10T03:11:59.803Z,7.72
2019-04-10T03:17:03.889Z,7.82
2019-04-10T03:22:09.048Z,7.78
2019-04-10T03:27:14.254Z,7.72
2019-04-10T03:32:18.897Z,7.76
2019-04-10T03:37:24.378Z,7.79
2019-04-10T03:42:28.700Z,7.80
2019-04-10T03:47:33.466Z,7.78
2019-04-10T03:52:39.442Z,7.77
2019-04-10T03:57:43.447Z,7.69
2019-04-10T04:02:48.310Z,7.69
2019-04-10T04:07:52.456Z,7.76
2019-04-10T04:12:57.228Z,7.75
2019-04-10T04:18:02.417Z,7.70
2019-04-10T04:23:07.441Z,7.68
2019-04-10T04:28:11.563Z,7.70
2019-04-10T04:33:15.723Z,7.70
2019-04-10T04:38:19.995Z,7.64
2019-04-10T04:43:25.030Z,7.66
2019-04-10T04:48:29.331Z,7.55
2019-04-10T04:53:34.443Z,7.57
2019-04-10T04:58:38.407Z,7.64
2019-04-10T05:03:42.466Z,7.84
2019-04-10T05:08:46.511Z,7.85
2019-04-10T05:13:50.994Z,7.74
2019-04-10T05:18:56.180Z,7.76
2019-04-10T05:24:00.235Z,7.66
2019-04-10T05:29:04.737Z,7.60
2019-04-10T05:34:09.336Z,7.38
2019-04-10T05:39:14.510Z,7.69
2019-04-10T05:44:19.979Z,7.83
2019-04-10T05:49:24.663Z,7.92
2019-04-10T05:54:28.995Z,7.84
2019-04-10T05:59:34.179Z,7.88
2019-04-10T06:04:38.667Z,7.95
2019-04-10T06:09:53.953Z,7.98
2019-04-10T06:14:48.580Z,7.92
2019-04-10T06:19:53.079Z,7.89
2019-04-10T06:24:57.448Z,7.93
2019-04-10T06:30:01.912Z,8.04
2019-04-10T06:35:07.929Z,8.03
2019-04-10T06:40:18.794Z,8.05
2019-04-10T06:45:18.037Z,8.15
2019-04-10T06:50:23.052Z,8.16
2019-04-10T06:55:29.946Z,8.09
2019-04-10T07:00:34.185Z,8.11
2019-04-10T07:05:49.489Z,8.18
2019-04-10T07:10:52.079Z,8.27
2019-04-10T07:15:49.888Z,8.39
2019-04-10T07:20:56.378Z,8.50
2019-04-10T07:25:59.750Z,8.57
2019-04-10T07:31:08.088Z,8.57
2019-04-10T07:36:12.890Z,8.59
2019-04-10T07:41:21.376Z,8.56
2019-04-10T07:46:22.643Z,8.55
2019-04-10T07:51:27.660Z,8.61
2019-04-10T07:56:31.844Z,8.65
2019-04-10T08:01:35.904Z,8.62
2019-04-10T08:06:39.935Z,8.76
2019-04-10T08:11:44.826Z,8.80
2019-04-10T08:16:49.742Z,8.88
2019-04-10T08:21:54.834Z,9.06
2019-04-10T08:26:59.112Z,9.35
2019-04-10T08:32:03.451Z,9.29
2019-04-10T08:37:08.131Z,10.02
2019-04-10T08:42:12.729Z,9.86
2019-04-10T08:47:17.262Z,9.60
2019-04-10T08:52:22.108Z,9.49
2019-04-10T08:57:26.330Z,9.47
2019-04-10T09:02:30.469Z,9.35
2019-04-10T09:07:34.515Z,9.41
2019-04-10T09:12:38.959Z,9.56
2019-04-10T09:17:43.797Z,9.77
2019-04-10T09:23:10.372Z,10.28
2019-04-10T09:27:53.992Z,11.60
2019-04-10T09:32:59.001Z,11.60
2019-04-10T09:38:04.231Z,11.78
2019-04-10T09:43:09.335Z,12.41
2019-04-10T09:48:13.457Z,13.42
2019-04-10T09:53:17.477Z,13.69
2019-04-10T09:58:22.543Z,13.75
2019-04-10T10:03:26.595Z,13.90
2019-04-10T10:08:31.612Z,13.77
2019-04-10T10:13:35.843Z,13.69
2019-04-10T10:18:40.015Z,13.71
2019-04-10T10:23:44.675Z,13.42
2019-04-10T10:28:48.995Z,13.49
2019-04-10T10:33:54.986Z,13.56
2019-04-10T10:39:06.841Z,13.32
2019-04-10T10:44:04.838Z,13.46
2019-04-10T10:49:08.970Z,13.83
2019-04-10T10:54:12.934Z,14.25
2019-04-10T10:59:17.935Z,14.37
2019-04-10T11:04:23.161Z,14.01
2019-04-10T11:09:28.516Z,14.06
2019-04-10T11:14:32.728Z,13.96
2019-04-10T11:19:37.120Z,14.03
2019-04-10T11:24:43.147Z,13.72
2019-04-10T11:29:46.954Z,13.90
2019-04-10T11:34:51.068Z,14.00
2019-04-10T11:39:56.280Z,14.17
2019-04-10T11:45:01.824Z,14.53
2019-04-10T11:50:09.503Z,14.54
2019-04-10T11:55:16.167Z,14.23
2019-04-10T12:00:30.796Z,14.30
2019-04-10T12:05:36.618Z,14.06
2019-04-10T12:15:50.495Z,14.17
2019-04-10T12:20:55.589Z,14.36
2019-04-10T12:25:59.722Z,14.54
2019-04-10T12:31:03.878Z,14.42
2019-04-10T12:36:08.147Z,14.30
2019-04-10T12:41:12.073Z,14.83
2019-04-10T12:46:17.767Z,14.76
2019-04-10T12:51:21.795Z,14.33
2019-04-10T12:56:26.179Z,14.78
2019-04-10T13:01:31.263Z,14.57
2019-04-10T13:06:35.160Z,14.36
2019-04-10T13:11:39.163Z,14.19
2019-04-10T13:16:43.186Z,14.05
2019-04-10T13:21:47.198Z,14.09
2019-04-10T13:26:52.194Z,14.17
2019-04-10T13:31:56.275Z,13.95
2019-04-10T13:37:00.305Z,14.17
2019-04-10T13:42:05.015Z,13.98
2019-04-10T13:47:10.287Z,14.40
2019-04-10T13:52:14.247Z,13.84
2019-04-10T13:57:22.224Z,13.56
2019-04-10T14:02:27.757Z,13.54
2019-04-10T14:07:31.944Z,13.73
2019-04-10T14:12:37.102Z,13.63
2019-04-10T14:17:41.717Z,13.39
2019-04-10T14:22:46.100Z,13.68
2019-04-10T14:27:50.287Z,13.75
2019-04-10T14:32:55.245Z,13.41
2019-04-10T14:37:59.234Z,12.99
2019-04-10T14:43:03.313Z,13.02
2019-04-10T14:48:07.882Z,13.12
2019-04-10T14:53:11.906Z,12.87
2019-04-10T14:58:24.009Z,13.02
2019-04-10T15:03:22.477Z,12.95
2019-04-10T15:08:27.878Z,13.17
2019-04-10T15:13:32.049Z,12.81
2019-04-10T15:18:37.129Z,12.64
2019-04-10T15:23:42.546Z,12.55
2019-04-10T15:28:47.719Z,12.57
2019-04-10T15:33:51.924Z,12.33
2019-04-10T15:38:55.918Z,12.27
2019-04-10T15:43:59.955Z,11.51
2019-04-10T15:49:04.167Z,11.12
2019-04-10T15:54:08.120Z,11.12
2019-04-10T15:59:12.230Z,10.83
2019-04-10T16:04:17.101Z,10.83
2019-04-10T16:09:21.346Z,10.55
2019-04-10T16:14:28.434Z,10.43
2019-04-10T16:19:31.269Z,10.21
2019-04-10T16:24:36.576Z,10.18
2019-04-10T16:29:40.916Z,10.16
2019-04-10T16:34:49.063Z,10.18
2019-04-10T16:40:00.469Z,9.91
2019-04-10T16:45:01.813Z,9.69
2019-04-10T16:50:06.380Z,9.83
2019-04-10T16:55:10.637Z,9.65
2019-04-10T17:00:17.152Z,9.64
2019-04-10T17:05:22.643Z,9.51
2019-04-10T17:10:27.932Z,9.44
2019-04-10T17:15:34.347Z,9.37
2019-04-10T17:20:38.571Z,9.32
2019-04-10T17:25:42.656Z,9.01
2019-04-10T17:30:46.595Z,8.99
2019-04-10T17:35:51.578Z,8.98
2019-04-10T17:40:58.849Z,8.95
